Aviation Digital Data Service (ADDS)

Output produced by METARs form (2142 UTC 24 February 2018)
found at http://aviationweather.gov/adds/metars/
 
KRUT 241943Z 2420/2518 34013KT P6SM SCT035 BKN150 
     FM250800 12012KT P6SM OVC100 
     FM251000 12013G23KT 5SM -SN BR OVC060 
     FM251200 12019G29KT 3SM -SNPL BR OVC030 
     FM251400 12022G34KT 2SM -PL BR OVC020 
     FM251600 13023G35KT 2SM -RA BR OVC010